TimeEST,TemperatureF,Dew PointF,Humidity,Sea Level PressureIn,VisibilityMPH,Wind Direction,Wind SpeedMPH,Gust SpeedMPH,PrecipitationIn,Events,Conditions,WindDirDegrees,DateUTC
12:54 AM,24.1,18.0,77,30.21,10.0,North,10.4,-,N/A,,Clear,360,2013-02-22 05:54:00
1:54 AM,21.0,16.0,81,30.23,10.0,North,8.1,-,N/A,,Clear,350,2013-02-22 06:54:00
2:54 AM,23.0,17.1,78,30.26,10.0,North,11.5,-,N/A,,Clear,350,2013-02-22 07:54:00
3:54 AM,21.0,15.1,78,30.28,10.0,North,12.7,-,N/A,,Clear,350,2013-02-22 08:54:00
4:54 AM,19.9,15.1,81,30.30,10.0,NNW,12.7,-,N/A,,Clear,340,2013-02-22 09:54:00
5:54 AM,18.0,12.9,81,30.32,10.0,NNW,12.7,-,N/A,,Clear,330,2013-02-22 10:54:00
6:54 AM,18.0,12.9,81,30.33,10.0,NNW,8.1,-,N/A,,Scattered Clouds,340,2013-02-22 11:54:00
7:03 AM,17.6,14.0,86,30.30,10.0,NNW,6.9,-,N/A,,Mostly Cloudy,340,2013-02-22 12:03:00
7:54 AM,24.1,16.0,71,30.35,10.0,NNE,12.7,-,N/A,,Overcast,20,2013-02-22 12:54:00
8:54 AM,24.1,16.0,71,30.38,10.0,NNE,13.8,-,N/A,,Overcast,30,2013-02-22 13:54:00
9:54 AM,25.0,16.0,69,30.40,10.0,NNE,11.5,-,N/A,,Overcast,30,2013-02-22 14:54:00
10:54 AM,25.0,16.0,69,30.40,10.0,North,8.1,-,N/A,,Overcast,360,2013-02-22 15:54:00
11:23 AM,26.6,15.8,64,30.36,10.0,NNE,6.9,-,N/A,,Scattered Clouds,20,2013-02-22 16:23:00
11:54 AM,28.9,17.1,61,30.38,10.0,NNE,4.6,-,N/A,,Partly Cloudy,30,2013-02-22 16:54:00
12:54 PM,30.9,17.1,57,30.36,10.0,North,6.9,-,N/A,,Clear,360,2013-02-22 17:54:00
1:54 PM,30.9,19.9,64,30.35,10.0,NW,8.1,-,N/A,,Partly Cloudy,320,2013-02-22 18:54:00
2:54 PM,32.0,19.9,61,30.35,10.0,NW,8.1,-,N/A,,Clear,310,2013-02-22 19:54:00
3:54 PM,30.0,19.0,64,30.34,10.0,NNW,10.4,-,N/A,,Clear,330,2013-02-22 20:54:00
4:54 PM,28.0,19.0,69,30.35,10.0,WNW,5.8,-,N/A,,Clear,290,2013-02-22 21:54:00
5:54 PM,26.1,19.9,78,30.36,10.0,WNW,5.8,-,N/A,,Clear,300,2013-02-22 22:54:00
6:54 PM,21.9,17.1,82,30.35,10.0,NW,4.6,-,N/A,,Clear,310,2013-02-22 23:54:00
7:54 PM,21.0,17.1,85,30.35,10.0,North,6.9,-,N/A,,Clear,360,2013-02-23 00:54:00
8:54 PM,19.9,16.0,85,30.35,10.0,North,6.9,-,N/A,,Clear,350,2013-02-23 01:54:00
9:54 PM,18.0,15.1,88,30.36,10.0,NNW,6.9,-,N/A,,Clear,330,2013-02-23 02:54:00
10:11 PM,17.6,15.8,93,30.32,10.0,NW,6.9,-,N/A,,Mostly Cloudy,320,2013-02-23 03:11:00
10:34 PM,17.6,15.8,93,30.32,10.0,North,6.9,-,N/A,,Scattered Clouds,350,2013-02-23 03:34:00
10:54 PM,18.0,14.0,84,30.36,10.0,North,6.9,-,N/A,,Clear,10,2013-02-23 03:54:00
11:54 PM,16.0,10.9,81,30.36,10.0,North,6.9,-,N/A,,Clear,10,2013-02-23 04:54:00